Time;durP1;ratioP1;P1;durP2;ratioP2;P2;SDS_P1;SDS_P2;PMS_P1;PMS_P2;Temp;Humidity;BMP_temperature;BMP_pressure;BME280_temperature;BME280_humidity;BME280_pressure;Samples;Min_cycle;Max_cycle;Signal;HPM_P1;HPM_P2
2023/05/15 00:00:11;;;;;;;25.42;16.40;;;;;;;15.66;100.00;100376.69;8262375;28;20553;-61
2023/05/15 00:04:25;;;;;;;27.23;17.05;;;;;;;15.73;100.00;100376.84;8401037;27;20395;-61
2023/05/15 00:08:26;;;;;;;30.00;18.02;;;;;;;15.55;100.00;100377.94;8431263;27;20442;-61
2023/05/15 00:12:26;;;;;;;31.38;19.83;;;;;;;15.51;100.00;100379.31;8399462;27;20518;-60
2023/05/15 00:16:27;;;;;;;30.98;20.98;;;;;;;15.40;100.00;100371.50;8399330;27;20124;-60
2023/05/15 00:20:28;;;;;;;32.40;20.75;;;;;;;15.21;100.00;100377.31;8397817;27;20441;-60
2023/05/15 00:24:28;;;;;;;40.28;23.52;;;;;;;14.96;100.00;100372.94;8398489;27;20041;-60
2023/05/15 00:28:28;;;;;;;41.75;24.98;;;;;;;14.91;100.00;100372.59;8398176;27;20044;-60
2023/05/15 00:32:29;;;;;;;48.63;26.65;;;;;;;15.25;100.00;100367.75;8392370;27;20029;-60
2023/05/15 00:36:30;;;;;;;43.30;26.42;;;;;;;15.39;100.00;100356.19;8373164;28;20036;-60
2023/05/15 00:40:31;;;;;;;48.33;27.52;;;;;;;15.46;100.00;100361.78;8396329;28;20403;-60
2023/05/15 00:44:33;;;;;;;52.80;31.58;;;;;;;15.60;100.00;100351.00;8413534;28;20507;-60
2023/05/15 00:48:34;;;;;;;58.70;34.80;;;;;;;15.50;100.00;100353.06;8411258;28;20047;-60
2023/05/15 00:52:36;;;;;;;59.20;35.50;;;;;;;15.59;100.00;100359.34;8406629;27;20495;-60
2023/05/15 00:56:37;;;;;;;59.85;36.17;;;;;;;15.80;100.00;100361.47;8399247;27;20051;-61
2023/05/15 01:00:38;;;;;;;65.85;36.13;;;;;;;15.89;100.00;100355.78;8398704;27;20067;-61
2023/05/15 01:04:39;;;;;;;64.43;38.28;;;;;;;15.95;100.00;100359.69;8399670;27;20461;-60
2023/05/15 01:08:45;;;;;;;71.25;40.40;;;;;;;16.02;100.00;100356.06;8398728;27;20547;-61
2023/05/15 01:12:49;;;;;;;74.68;39.28;;;;;;;16.08;100.00;100359.97;8393504;27;20495;-60
2023/05/15 01:16:50;;;;;;;76.50;39.08;;;;;;;16.20;100.00;100353.06;8375289;28;20438;-61
2023/05/15 01:25:32;;;;;;;70.40;40.15;;;;;;;16.26;100.00;100346.88;8360871;27;20400;-60
2023/05/15 01:29:47;;;;;;;74.47;42.53;;;;;;;16.11;100.00;100360.47;8383300;28;20036;-59
2023/05/15 01:33:56;;;;;;;75.68;43.13;;;;;;;16.09;100.00;100357.06;8383447;28;20033;-60
2023/05/15 01:38:11;;;;;;;79.63;44.25;;;;;;;15.97;100.00;100352.16;8384142;28;20564;-60
2023/05/15 01:42:15;;;;;;;80.55;46.20;;;;;;;15.97;100.00;100353.03;8382298;28;20385;-59
2023/05/15 01:46:20;;;;;;;75.20;43.92;;;;;;;16.00;100.00;100347.22;8383894;28;20037;-60
2023/05/15 01:50:26;;;;;;;72.65;41.63;;;;;;;15.94;100.00;100345.22;8381490;28;20094;-60
2023/05/15 01:54:28;;;;;;;79.72;42.97;;;;;;;15.92;100.00;100343.69;8350671;28;20041;-60
2023/05/15 01:58:31;;;;;;;83.32;41.72;;;;;;;15.89;100.00;100352.22;8339706;28;20041;-61
2023/05/15 02:02:33;;;;;;;80.18;41.92;;;;;;;15.89;100.00;100349.50;8383587;28;20037;-61
2023/05/15 02:06:34;;;;;;;70.15;40.83;;;;;;;15.85;100.00;100348.16;8383183;28;20070;-60
2023/05/15 02:10:34;;;;;;;67.38;39.35;;;;;;;15.82;100.00;100348.53;8382653;28;20072;-59
2023/05/15 02:14:37;;;;;;;70.95;39.35;;;;;;;15.80;100.00;100353.31;8381358;28;20115;-59
2023/05/15 02:18:38;;;;;;;70.68;40.53;;;;;;;15.80;100.00;100358.75;8381507;28;20048;-58
2023/05/15 02:22:38;;;;;;;73.45;39.65;;;;;;;15.71;100.00;100355.22;8381832;28;20033;-58
2023/05/15 02:27:01;;;;;;;74.00;41.65;;;;;;;15.76;100.00;100350.06;8382179;28;20044;-61
2023/05/15 02:31:16;;;;;;;70.07;39.35;;;;;;;15.73;100.00;100351.28;8348242;28;20491;-61
2023/05/15 02:35:26;;;;;;;75.88;42.33;;;;;;;15.79;100.00;100348.88;8307131;28;20420;-62
2023/05/15 02:39:28;;;;;;;72.63;40.75;;;;;;;15.74;100.00;100352.16;8326794;28;20049;-62
2023/05/15 02:43:29;;;;;;;75.35;40.90;;;;;;;15.75;100.00;100348.38;8293635;28;20117;-60
2023/05/15 02:47:31;;;;;;;64.95;39.58;;;;;;;15.77;100.00;100357.25;8292800;28;20041;-60
2023/05/15 02:51:32;;;;;;;72.93;40.67;;;;;;;15.84;100.00;100368.25;8308150;28;20477;-59
2023/05/15 02:55:33;;;;;;;68.85;39.90;;;;;;;15.71;100.00;100369.69;8359778;28;20041;-61
2023/05/15 02:59:34;;;;;;;68.32;38.28;;;;;;;15.70;100.00;100370.72;8358866;28;20035;-61
2023/05/15 03:03:34;;;;;;;69.63;39.10;;;;;;;15.64;100.00;100357.78;8341808;28;20044;-61
2023/05/15 03:07:35;;;;;;;72.72;38.60;;;;;;;15.56;100.00;100357.81;8359259;28;20053;-60
2023/05/15 03:11:35;;;;;;;67.70;37.53;;;;;;;15.49;100.00;100359.56;8359537;28;20028;-60
2023/05/15 03:15:36;;;;;;;75.38;38.65;;;;;;;15.46;100.00;100351.72;8358713;28;20499;-60
2023/05/15 03:19:36;;;;;;;68.13;39.45;;;;;;;15.42;100.00;100364.00;8357534;28;20052;-61
2023/05/15 03:23:37;;;;;;;70.95;39.20;;;;;;;15.42;100.00;100353.13;8358537;28;20040;-60
2023/05/15 03:27:37;;;;;;;68.55;40.60;;;;;;;15.30;100.00;100349.03;8358225;28;20116;-61
2023/05/15 03:31:38;;;;;;;72.13;39.72;;;;;;;15.26;100.00;100357.72;8358099;28;20492;-61
2023/05/15 03:35:38;;;;;;;73.82;40.90;;;;;;;15.15;100.00;100356.22;8358552;28;20064;-61
2023/05/15 03:39:39;;;;;;;87.18;41.63;;;;;;;15.09;100.00;100362.38;8358331;28;20040;-60
2023/05/15 03:43:39;;;;;;;74.82;42.30;;;;;;;15.04;100.00;100348.41;8358061;28;20045;-61
2023/05/15 03:47:41;;;;;;;77.65;43.53;;;;;;;14.99;100.00;100347.22;8357061;28;20065;-60
2023/05/15 03:51:42;;;;;;;83.60;42.95;;;;;;;14.94;100.00;100353.19;8357689;28;20041;-61
2023/05/15 03:55:42;;;;;;;80.97;44.53;;;;;;;14.91;100.00;100353.53;8356333;28;20091;-60
2023/05/15 03:59:43;;;;;;;82.43;43.45;;;;;;;14.98;100.00;100359.97;8357921;28;20044;-62
2023/05/15 04:03:43;;;;;;;78.97;43.70;;;;;;;14.92;100.00;100349.81;8352011;28;20097;-61
2023/05/15 04:07:44;;;;;;;81.88;44.83;;;;;;;14.96;100.00;100345.72;8352763;28;20471;-62
2023/05/15 04:11:45;;;;;;;80.50;45.75;;;;;;;14.93;100.00;100351.50;8349592;28;20112;-62
2023/05/15 04:15:46;;;;;;;87.40;44.90;;;;;;;14.93;100.00;100346.06;8370346;28;20568;-61
2023/05/15 04:19:46;;;;;;;90.18;47.08;;;;;;;14.83;100.00;100345.41;8360523;28;20396;-61
2023/05/15 04:23:47;;;;;;;83.45;44.78;;;;;;;14.82;100.00;100351.84;8343365;28;20075;-62
2023/05/15 04:27:48;;;;;;;78.32;43.63;;;;;;;14.82;100.00;100354.56;8353548;28;21565;-61
2023/05/15 04:31:48;;;;;;;79.93;41.90;;;;;;;14.70;100.00;100355.94;8345125;28;20046;-62
2023/05/15 04:35:49;;;;;;;78.90;43.22;;;;;;;14.74;100.00;100357.31;8353886;28;20045;-62
2023/05/15 04:39:50;;;;;;;72.15;43.53;;;;;;;14.81;100.00;100347.44;8321318;28;20128;-62
2023/05/15 04:43:50;;;;;;;77.97;44.47;;;;;;;14.88;100.00;100350.34;8318111;28;20041;-62
2023/05/15 04:47:51;;;;;;;78.72;44.08;;;;;;;14.82;100.00;100348.28;8319809;28;20045;-58
2023/05/15 04:51:51;;;;;;;77.05;43.85;;;;;;;14.83;100.00;100353.56;8326242;28;20129;-58
2023/05/15 04:55:52;;;;;;;70.70;39.05;;;;;;;14.93;100.00;100351.50;8319815;28;20120;-58
2023/05/15 04:59:52;;;;;;;68.88;40.80;;;;;;;14.97;100.00;100357.44;8320512;28;20444;-56
2023/05/15 05:03:53;;;;;;;74.80;38.15;;;;;;;14.91;100.00;100358.97;8320567;28;20045;-57
2023/05/15 05:07:53;;;;;;;73.40;38.53;;;;;;;14.88;100.00;100362.06;8320497;28;20053;-57
2023/05/15 05:11:54;;;;;;;80.65;41.63;;;;;;;14.82;100.00;100360.00;8321044;28;20041;-56
2023/05/15 05:15:54;;;;;;;76.80;41.33;;;;;;;14.93;100.00;100370.56;8296529;28;20038;-61
2023/05/15 05:19:55;;;;;;;77.70;40.53;;;;;;;14.86;100.00;100361.41;8320419;28;20484;-60
2023/05/15 05:23:55;;;;;;;71.80;39.78;;;;;;;14.83;100.00;100375.34;8353137;28;20040;-60
2023/05/15 05:27:56;;;;;;;69.10;36.67;;;;;;;14.82;100.00;100370.91;8353210;28;20041;-62
2023/05/15 05:31:56;;;;;;;63.97;36.85;;;;;;;14.77;100.00;100376.03;8353416;28;20461;-62
2023/05/15 05:35:57;;;;;;;69.22;37.05;;;;;;;14.70;100.00;100377.72;8353841;28;20033;-62
2023/05/15 05:39:57;;;;;;;57.78;35.65;;;;;;;14.72;100.00;100381.13;8352843;28;20037;-58
2023/05/15 05:43:58;;;;;;;67.87;38.03;;;;;;;14.93;100.00;100377.88;8346698;28;20045;-58
2023/05/15 05:47:58;;;;;;;66.95;37.88;;;;;;;14.82;100.00;100386.41;8339252;28;20810;-58
2023/05/15 05:52:05;;;;;;;67.28;37.05;;;;;;;14.88;100.00;100386.53;8345393;28;20041;-59
2023/05/15 05:56:07;;;;;;;79.22;41.28;;;;;;;14.88;100.00;100389.28;8348788;28;20037;-59
2023/05/15 06:00:09;;;;;;;79.55;45.08;;;;;;;14.86;100.00;100382.31;8331323;28;20329;-58
2023/05/15 06:04:12;;;;;;;85.22;46.75;;;;;;;14.81;100.00;100385.53;8350119;28;20032;-58
2023/05/15 06:08:13;;;;;;;82.60;44.15;;;;;;;14.93;98.40;100394.19;8349823;28;20351;-58
2023/05/15 06:12:13;;;;;;;81.30;45.25;;;;;;;14.92;98.78;100404.25;8357977;28;20135;-59
2023/05/15 06:16:14;;;;;;;76.88;45.25;;;;;;;14.92;99.80;100404.25;8359073;28;20048;-58
2023/05/15 06:20:15;;;;;;;87.38;45.97;;;;;;;14.61;98.46;100400.50;8359176;28;20040;-58
2023/05/15 06:24:15;;;;;;;90.57;47.25;;;;;;;14.51;99.43;100399.81;8358126;28;20066;-58
2023/05/15 06:28:16;;;;;;;79.43;45.40;;;;;;;14.62;98.66;100404.94;8357852;28;20086;-58
2023/05/15 06:32:16;;;;;;;86.22;46.30;;;;;;;14.73;98.82;100403.75;8358506;28;20116;-59
2023/05/15 06:36:17;;;;;;;89.95;47.42;;;;;;;14.64;98.23;100411.03;8358237;28;20041;-58
2023/05/15 06:40:17;;;;;;;94.55;49.08;;;;;;;14.66;98.49;100414.44;8357932;28;20051;-58
2023/05/15 06:44:18;;;;;;;94.03;48.35;;;;;;;14.73;98.07;100410.03;8350670;28;22765;-58
2023/05/15 06:48:18;;;;;;;91.05;48.17;;;;;;;14.85;97.81;100414.13;8327192;28;20694;-58
2023/05/15 06:52:19;;;;;;;88.40;48.15;;;;;;;14.90;97.26;100411.75;8309499;28;20051;-59
2023/05/15 06:56:20;;;;;;;95.45;50.33;;;;;;;14.82;98.33;100409.00;8319611;28;20034;-58
2023/05/15 07:00:21;;;;;;;91.57;48.92;;;;;;;14.79;99.49;100406.63;8339016;28;20083;-58
2023/05/15 07:04:21;;;;;;;102.55;49.05;;;;;;;14.88;99.33;100405.59;8357247;28;20040;-58
2023/05/15 07:08:22;;;;;;;85.20;47.60;;;;;;;15.00;99.07;100415.13;8356803;28;20336;-58
2023/05/15 07:12:22;;;;;;;85.22;47.03;;;;;;;15.06;97.25;100422.59;8356738;28;20399;-58
2023/05/15 07:16:22;;;;;;;80.65;44.38;;;;;;;15.28;94.94;100413.72;8356723;28;20583;-59
2023/05/15 07:20:23;;;;;;;72.05;41.03;;;;;;;15.30;91.41;100408.09;8360997;28;20049;-58
2023/05/15 07:24:23;;;;;;;79.05;41.92;;;;;;;15.55;93.54;100417.94;8344375;28;20515;-59
2023/05/15 07:28:24;;;;;;;70.15;38.35;;;;;;;15.71;90.42;100409.75;8355964;28;20100;-56
2023/05/15 07:32:24;;;;;;;70.30;39.13;;;;;;;15.95;89.73;100411.50;8374800;28;20121;-56
2023/05/15 07:36:25;;;;;;;69.82;39.03;;;;;;;15.71;89.96;100407.84;8388800;28;20068;-56
2023/05/15 07:40:25;;;;;;;73.53;41.47;;;;;;;16.01;86.61;100400.72;8388752;28;20139;-56
2023/05/15 07:44:26;;;;;;;70.07;37.97;;;;;;;16.19;85.51;100405.94;8381507;28;20048;-56
2023/05/15 07:48:26;;;;;;;77.07;38.67;;;;;;;16.63;86.94;100407.03;8382518;28;20189;-56
2023/05/15 07:52:26;;;;;;;63.72;37.53;;;;;;;16.65;84.30;100407.72;8367644;28;20041;-59
2023/05/15 07:56:27;;;;;;;75.38;40.15;;;;;;;16.45;86.43;100406.47;8354876;28;20491;-56
2023/05/15 08:00:28;;;;;;;78.60;41.63;;;;;;;16.52;87.61;100402.84;8354961;28;20406;-56
2023/05/15 08:04:28;;;;;;;68.45;39.63;;;;;;;17.11;85.43;100402.00;8354563;28;20522;-56
2023/05/15 08:08:28;;;;;;;68.78;39.40;;;;;;;16.75;82.18;100397.38;8377787;28;20433;-59
2023/05/15 08:12:29;;;;;;;71.25;39.28;;;;;;;17.26;81.12;100400.13;8355308;28;20091;-57
2023/05/15 08:16:29;;;;;;;69.43;39.55;;;;;;;17.06;78.65;100406.31;8347752;28;20057;-57
2023/05/15 08:20:30;;;;;;;58.38;35.88;;;;;;;17.87;78.41;100385.28;8324812;28;20404;-57
2023/05/15 08:24:30;;;;;;;59.33;37.67;;;;;;;18.33;77.62;100385.84;8354289;28;20120;-57
2023/05/15 08:28:32;;;;;;;54.80;33.45;;;;;;;18.47;76.19;100388.56;8341822;28;20041;-56
2023/05/15 08:32:32;;;;;;;53.08;32.22;;;;;;;18.84;76.23;100385.56;8344815;28;20560;-57
2023/05/15 08:36:33;;;;;;;56.47;32.38;;;;;;;18.97;76.54;100395.81;8354619;28;20049;-56
2023/05/15 08:40:33;;;;;;;48.97;32.60;;;;;;;18.88;73.88;100396.97;8353279;28;20069;-56
2023/05/15 08:44:35;;;;;;;50.53;28.92;;;;;;;18.50;70.10;100387.31;8352396;28;20073;-57
2023/05/15 08:48:40;;;;;;;43.63;28.95;;;;;;;18.54;70.67;100394.94;8352920;28;20071;-57
2023/05/15 08:52:45;;;;;;;52.70;29.80;;;;;;;18.93;73.04;100389.88;8366056;28;20229;-57
2023/05/15 08:56:46;;;;;;;45.25;28.50;;;;;;;19.52;71.47;100391.19;8387122;28;20029;-57
2023/05/15 09:00:47;;;;;;;45.53;29.20;;;;;;;19.71;71.45;100391.50;8359048;28;20049;-57
2023/05/15 09:04:48;;;;;;;42.80;27.58;;;;;;;19.55;71.62;100389.09;8344501;28;20041;-56
2023/05/15 09:08:49;;;;;;;44.00;28.27;;;;;;;19.18;70.08;100393.88;8354046;28;20144;-59
2023/05/15 09:12:51;;;;;;;41.03;28.35;;;;;;;18.84;68.43;100385.56;8353547;28;20041;-57
2023/05/15 09:16:52;;;;;;;46.38;28.02;;;;;;;18.35;68.42;100384.59;8351072;28;20033;-57
2023/05/15 09:20:52;;;;;;;48.70;29.23;;;;;;;18.35;72.99;100394.69;8347935;28;20156;-56
2023/05/15 09:24:54;;;;;;;56.63;34.15;;;;;;;18.41;70.79;100400.28;8344597;28;20505;-56
2023/05/15 09:29:01;;;;;;;47.95;30.15;;;;;;;19.11;71.28;100398.44;8353379;28;20206;-59
2023/05/15 09:33:03;;;;;;;47.40;31.38;;;;;;;19.29;69.41;100396.09;8352813;28;20043;-59
2023/05/15 09:37:06;;;;;;;47.50;30.60;;;;;;;19.72;66.47;100384.97;8353111;28;20105;-58
2023/05/15 09:41:07;;;;;;;46.90;29.38;;;;;;;19.48;69.03;100381.69;8352868;28;20033;-59
2023/05/15 09:45:16;;;;;;;44.33;27.05;;;;;;;20.49;67.23;100389.97;8352241;28;20041;-59
2023/05/15 09:49:18;;;;;;;40.83;28.25;;;;;;;20.57;66.05;100389.78;8338054;28;20123;-59
2023/05/15 09:53:20;;;;;;;45.28;27.70;;;;;;;21.76;65.26;100386.84;8358908;28;20037;-59
2023/05/15 09:57:22;;;;;;;32.47;24.42;;;;;;;23.37;59.02;100384.44;8357360;28;20474;-60
2023/05/15 10:01:23;;;;;;;35.28;22.75;;;;;;;24.83;56.61;100374.78;8359229;28;20174;-60
2023/05/15 10:05:27;;;;;;;44.53;27.15;;;;;;;24.49;53.25;100385.72;8359209;28;20091;-61
2023/05/15 10:09:30;;;;;;;37.40;25.23;;;;;;;25.05;53.30;100380.63;8359152;28;20049;-61
2023/05/15 10:13:33;;;;;;;32.97;21.55;;;;;;;25.92;50.79;100382.50;8358962;28;20045;-61
2023/05/15 10:17:35;;;;;;;31.48;22.48;;;;;;;26.17;50.27;100375.56;8356147;28;20372;-59
2023/05/15 10:21:38;;;;;;;35.10;22.75;;;;;;;26.31;51.13;100371.44;8354177;28;20048;-59
2023/05/15 10:25:54;;;;;;;34.88;23.77;;;;;;;25.84;50.34;100375.41;8358832;28;20049;-60
2023/05/15 10:29:57;;;;;;;28.20;21.60;;;;;;;26.64;50.18;100365.19;8358243;28;20041;-60
2023/05/15 10:33:59;;;;;;;34.83;23.40;;;;;;;26.45;49.81;100367.31;8358902;28;20040;-59
2023/05/15 10:38:03;;;;;;;31.05;21.77;;;;;;;26.32;49.01;100356.47;8336560;28;20029;-56
2023/05/15 10:42:05;;;;;;;31.53;21.03;;;;;;;25.26;48.64;100360.69;8325260;28;20090;-56
2023/05/15 10:46:06;;;;;;;30.77;22.08;;;;;;;25.91;48.79;100345.63;8340927;28;20182;-56
2023/05/15 10:50:08;;;;;;;32.30;21.23;;;;;;;26.27;49.18;100348.09;8356232;28;20040;-56
2023/05/15 10:54:09;;;;;;;38.60;25.83;;;;;;;24.85;52.11;100333.06;8337373;28;20102;-56
2023/05/15 10:58:10;;;;;;;39.88;24.20;;;;;;;24.79;52.11;100331.25;8324518;28;20041;-57
2023/05/15 11:02:20;;;;;;;34.00;22.10;;;;;;;25.56;53.17;100333.75;8354964;28;20510;-56
2023/05/15 11:06:30;;;;;;;32.05;19.58;;;;;;;25.50;51.95;100334.72;8341785;28;20052;-56
2023/05/15 11:10:36;;;;;;;33.22;21.45;;;;;;;26.79;50.60;100341.34;8347069;28;20400;-59
2023/05/15 11:14:38;;;;;;;28.38;17.75;;;;;;;27.57;45.88;100332.09;8357232;28;20486;-56
2023/05/15 11:18:39;;;;;;;24.35;15.75;;;;;;;27.41;45.38;100332.97;8356470;28;20128;-56
2023/05/15 11:22:39;;;;;;;17.48;12.07;;;;;;;26.38;44.89;100333.31;8356379;28;20071;-56
2023/05/15 11:26:41;;;;;;;21.67;12.45;;;;;;;26.07;43.76;100322.72;8356537;28;20711;-57
2023/05/15 11:30:42;;;;;;;24.98;15.02;;;;;;;25.87;44.92;100319.50;8356929;28;20041;-56
2023/05/15 11:34:43;;;;;;;30.45;17.83;;;;;;;25.21;45.50;100316.28;8356747;28;20044;-58
2023/05/15 11:38:49;;;;;;;28.40;17.40;;;;;;;27.19;46.81;100313.44;8356151;28;20121;-58
2023/05/15 11:43:02;;;;;;;31.55;19.83;;;;;;;26.50;46.51;100308.31;8366574;28;20071;-59
2023/05/15 11:47:03;;;;;;;24.20;16.20;;;;;;;27.11;45.18;100301.91;8387598;28;20051;-59
2023/05/15 11:51:13;;;;;;;19.60;14.55;;;;;;;28.38;44.55;100307.03;8383496;28;20499;-59
2023/05/15 11:55:15;;;;;;;27.17;18.30;;;;;;;26.70;48.36;100305.94;8355676;28;20063;-58
2023/05/15 11:59:15;;;;;;;28.02;17.13;;;;;;;26.80;47.66;100292.22;8344986;28;20037;-58
2023/05/15 12:03:23;;;;;;;29.15;18.05;;;;;;;24.77;53.69;100301.06;8345886;28;20106;-60
2023/05/15 12:07:23;;;;;;;33.65;20.92;;;;;;;23.05;50.01;100296.22;8354734;28;20049;-58
2023/05/15 12:11:24;;;;;;;28.48;17.52;;;;;;;23.08;54.78;100290.25;8355415;28;20040;-58
2023/05/15 12:15:25;;;;;;;27.10;18.17;;;;;;;22.82;54.40;100281.38;8353530;28;20407;-61
2023/05/15 12:19:27;;;;;;;29.90;18.60;;;;;;;22.84;59.22;100280.06;8352553;28;20073;-58
2023/05/15 12:23:27;;;;;;;31.50;18.55;;;;;;;22.38;52.60;100278.75;8354771;28;20044;-60
2023/05/15 12:27:28;;;;;;;31.20;18.00;;;;;;;22.07;55.66;100271.28;8354473;28;20103;-58
2023/05/15 12:31:28;;;;;;;29.15;18.48;;;;;;;21.64;54.69;100270.22;8354525;28;20518;-58
2023/05/15 12:35:33;;;;;;;28.15;18.25;;;;;;;22.05;60.48;100267.91;8367393;28;20040;-60
2023/05/15 12:39:33;;;;;;;;;;;;;;;22.55;57.08;100272.50;8387305;28;20102;-60
2023/05/15 12:43:34;;;;;;;36.80;20.13;;;;;;;22.14;56.73;100265.75;8387445;28;19916;-58
2023/05/15 12:47:35;;;;;;;28.33;19.23;;;;;;;22.03;58.60;100270.06;8386217;28;20070;-58
2023/05/15 12:51:41;;;;;;;33.45;19.38;;;;;;;21.83;57.40;100266.56;8358667;28;20049;-59
2023/05/15 12:55:45;;;;;;;33.17;21.45;;;;;;;22.03;59.37;100264.56;8358383;28;20044;-58
2023/05/15 12:59:45;;;;;;;31.45;19.55;;;;;;;21.87;56.53;100267.81;8372236;28;20265;-57
2023/05/15 13:03:46;;;;;;;30.42;17.98;;;;;;;21.76;55.40;100271.25;8351357;28;20060;-57
2023/05/15 13:07:46;;;;;;;27.10;18.83;;;;;;;22.23;57.94;100265.25;8339683;28;20045;-59
2023/05/15 13:11:47;;;;;;;26.52;17.48;;;;;;;22.26;57.01;100264.00;8353822;28;20083;-58
2023/05/15 13:15:49;;;;;;;31.08;17.35;;;;;;;22.19;57.37;100264.03;8345289;28;20036;-59
2023/05/15 13:19:50;;;;;;;28.33;18.00;;;;;;;22.28;57.68;100256.31;8352720;28;20064;-59
2023/05/15 13:23:51;;;;;;;34.08;20.17;;;;;;;22.32;56.61;100250.16;8347213;28;20119;-58
2023/05/15 13:27:51;;;;;;;28.92;20.25;;;;;;;22.19;55.04;100242.00;8342652;28;20102;-61
2023/05/15 13:31:52;;;;;;;28.65;18.42;;;;;;;22.09;57.33;100246.28;8330920;28;20041;-61
2023/05/15 13:35:52;;;;;;;26.08;17.55;;;;;;;22.23;56.37;100242.41;8339062;28;20037;-61
2023/05/15 13:39:53;;;;;;;31.48;19.50;;;;;;;22.04;56.79;100249.72;8334545;28;20037;-61
2023/05/15 13:43:53;;;;;;;53.13;23.45;;;;;;;22.20;58.67;100249.19;8376405;28;20168;-61
2023/05/15 13:47:54;;;;;;;25.27;16.85;;;;;;;21.73;54.43;100251.53;8385104;28;20105;-61
2023/05/15 13:51:55;;;;;;;22.58;14.23;;;;;;;22.53;57.03;100241.56;8369435;28;20440;-62
2023/05/15 13:55:55;;;;;;;23.30;14.65;;;;;;;22.89;56.41;100241.66;8352274;28;20037;-60
2023/05/15 13:59:55;;;;;;;23.10;15.40;;;;;;;22.62;56.83;100242.97;8352034;28;20040;-60
2023/05/15 14:03:56;;;;;;;28.80;21.27;;;;;;;21.98;59.98;100247.84;8350825;28;20494;-61
2023/05/15 14:07:56;;;;;;;33.58;22.95;;;;;;;21.75;63.46;100264.06;8351951;28;20506;-61
2023/05/15 14:11:57;;;;;;;37.30;26.25;;;;;;;21.57;62.31;100252.91;8352456;28;20041;-59
2023/05/15 14:15:57;;;;;;;37.20;24.35;;;;;;;21.41;64.02;100250.63;8350185;28;20276;-60
2023/05/15 14:19:57;;;;;;;37.72;24.27;;;;;;;21.41;64.30;100258.03;8356680;28;20041;-57
2023/05/15 14:23:58;;;;;;;66.18;31.45;;;;;;;21.31;67.04;100252.97;8354967;28;20029;-58
2023/05/15 14:27:58;;;;;;;38.17;23.75;;;;;;;21.16;64.94;100257.88;8349519;28;20045;-57
2023/05/15 14:31:59;;;;;;;36.67;23.67;;;;;;;21.17;65.49;100256.84;8355424;28;20033;-60
2023/05/15 14:36:00;;;;;;;37.45;23.27;;;;;;;21.16;65.30;100260.63;8357435;28;20116;-60
2023/05/15 14:40:00;;;;;;;34.97;22.98;;;;;;;21.00;65.21;100266.59;8357401;28;20102;-60
2023/05/15 14:44:03;;;;;;;31.35;22.13;;;;;;;21.02;65.80;100276.28;8322310;28;20504;-60
2023/05/15 14:48:04;;;;;;;28.15;19.30;;;;;;;21.18;64.40;100264.00;8367701;28;20159;-60
2023/05/15 14:52:08;;;;;;;34.10;20.45;;;;;;;21.22;66.38;100268.88;8362032;28;20036;-60
2023/05/15 14:56:08;;;;;;;34.15;23.38;;;;;;;21.15;66.00;100269.94;8352573;28;20037;-59
2023/05/15 15:00:09;;;;;;;33.10;23.17;;;;;;;20.99;64.90;100284.16;8340420;28;20075;-59
2023/05/15 15:04:10;;;;;;;45.72;26.63;;;;;;;20.75;65.45;100279.25;8333341;28;20127;-60
2023/05/15 15:08:11;;;;;;;62.03;29.00;;;;;;;20.61;66.20;100294.03;8312318;28;20516;-60
2023/05/15 15:12:11;;;;;;;43.15;26.75;;;;;;;20.40;68.16;100286.03;8334496;28;20438;-60
2023/05/15 15:16:12;;;;;;;41.80;26.80;;;;;;;20.27;68.01;100291.47;8332058;28;20037;-59
2023/05/15 15:20:13;;;;;;;42.33;27.10;;;;;;;20.17;69.43;100291.88;8343116;28;20404;-59
2023/05/15 15:24:14;;;;;;;41.97;26.92;;;;;;;19.87;68.43;100301.47;8322331;28;20468;-59
2023/05/15 15:28:15;;;;;;;43.65;28.40;;;;;;;19.95;72.29;100306.78;8296289;28;20041;-60
2023/05/15 15:32:15;;;;;;;41.83;27.63;;;;;;;20.05;71.18;100309.13;8320869;28;20041;-60
2023/05/15 15:36:16;;;;;;;40.50;25.00;;;;;;;19.97;68.17;100303.84;8312476;28;20307;-59
2023/05/15 15:40:16;;;;;;;39.95;25.35;;;;;;;19.69;69.02;100308.56;8288673;28;20038;-60
2023/05/15 15:44:17;;;;;;;38.35;25.67;;;;;;;19.56;69.05;100320.34;8313082;28;20049;-60
2023/05/15 15:48:17;;;;;;;39.20;25.30;;;;;;;19.65;68.83;100330.09;8343583;28;20045;-59
2023/05/15 15:52:18;;;;;;;43.90;27.40;;;;;;;19.41;70.29;100334.19;8353413;28;20047;-59
2023/05/15 15:56:20;;;;;;;37.92;23.80;;;;;;;19.40;69.22;100332.47;8351315;28;20456;-60
2023/05/15 16:00:20;;;;;;;45.10;26.98;;;;;;;19.43;71.17;100329.31;8360915;28;20037;-59
2023/05/15 16:04:21;;;;;;;45.85;29.42;;;;;;;19.72;70.43;100328.22;8334543;28;20072;-60
2023/05/15 16:08:22;;;;;;;51.13;31.92;;;;;;;19.39;73.13;100324.44;8349160;28;20057;-60
2023/05/15 16:12:23;;;;;;;52.53;34.50;;;;;;;19.08;73.47;100329.47;8350015;28;20488;-60
2023/05/15 16:16:24;;;;;;;56.15;35.40;;;;;;;18.89;76.34;100321.97;8348047;28;20109;-60
2023/05/15 16:20:24;;;;;;;55.40;35.70;;;;;;;19.01;75.39;100336.81;8352762;28;20090;-58
2023/05/15 16:24:25;;;;;;;54.13;36.25;;;;;;;19.05;76.83;100332.63;8339286;28;20136;-60
2023/05/15 16:28:25;;;;;;;57.42;35.92;;;;;;;18.86;76.23;100338.78;8339808;28;20337;-60
2023/05/15 16:32:26;;;;;;;57.53;36.95;;;;;;;18.68;77.06;100336.53;8346360;28;20511;-60
2023/05/15 16:36:27;;;;;;;64.32;37.65;;;;;;;18.68;77.70;100346.63;8349463;28;20348;-60
2023/05/15 16:40:27;;;;;;;62.15;38.10;;;;;;;18.57;77.68;100338.97;8351083;28;20122;-60
2023/05/15 16:44:27;;;;;;;68.82;38.53;;;;;;;18.57;77.82;100345.28;8350939;28;20040;-60
2023/05/15 16:48:28;;;;;;;63.78;39.95;;;;;;;18.64;76.95;100346.19;8352405;28;20056;-59
2023/05/15 16:52:28;;;;;;;69.35;40.10;;;;;;;18.66;78.97;100343.25;8355724;28;20380;-60
2023/05/15 16:56:29;;;;;;;64.43;39.05;;;;;;;18.59;79.28;100351.41;8349461;28;20037;-60
2023/05/15 17:00:29;;;;;;;64.53;40.25;;;;;;;18.61;78.87;100346.59;8347245;28;20052;-60
2023/05/15 17:04:33;;;;;;;66.90;38.67;;;;;;;18.47;78.79;100344.75;8350339;28;20053;-60
2023/05/15 17:08:34;;;;;;;74.28;39.90;;;;;;;18.39;78.86;100347.59;8333078;28;20045;-58
2023/05/15 17:12:35;;;;;;;73.93;38.83;;;;;;;18.43;78.79;100348.09;8311043;28;20045;-58
2023/05/15 17:16:35;;;;;;;63.47;35.70;;;;;;;18.42;80.31;100349.97;8305482;28;20049;-58
2023/05/15 17:20:35;;;;;;;61.15;34.53;;;;;;;18.28;79.86;100360.94;8349983;28;20533;-58
2023/05/15 17:24:36;;;;;;;64.60;35.67;;;;;;;18.45;80.74;100360.53;8349493;28;20040;-58
2023/05/15 17:28:36;;;;;;;71.32;37.35;;;;;;;17.80;83.41;100365.19;8349913;28;20052;-58
2023/05/15 17:32:37;;;;;;;65.38;34.40;;;;;;;17.56;85.74;100379.16;8350915;28;20052;-58
2023/05/15 17:36:38;;;;;;;58.22;33.10;;;;;;;17.22;87.48;100379.69;8319701;28;20047;-58
2023/05/15 17:40:38;;;;;;;61.35;32.47;;;;;;;16.91;91.41;100394.50;8317621;28;20511;-58
2023/05/15 17:44:39;;;;;;;66.28;34.63;;;;;;;16.46;96.55;100397.25;8317774;28;20044;-59
2023/05/15 17:48:39;;;;;;;72.90;35.55;;;;;;;16.14;100.00;100397.44;8313807;28;20037;-58
2023/05/15 17:52:40;;;;;;;78.80;38.47;;;;;;;15.92;100.00;100406.41;8333875;28;20090;-60
2023/05/15 17:56:40;;;;;;;79.75;41.40;;;;;;;15.81;100.00;100401.34;8324134;28;20048;-59
2023/05/15 18:00:42;;;;;;;90.50;42.38;;;;;;;15.70;100.00;100403.44;8330422;28;20046;-58
2023/05/15 18:04:43;;;;;;;79.07;40.30;;;;;;;15.67;100.00;100401.06;8286047;28;20056;-59
2023/05/15 18:08:44;;;;;;;85.53;41.30;;;;;;;15.67;100.00;100411.94;8298310;28;20124;-60
2023/05/15 18:12:44;;;;;;;82.93;42.10;;;;;;;15.63;100.00;100416.06;8323037;28;20565;-59
2023/05/15 18:16:45;;;;;;;89.00;42.90;;;;;;;15.66;100.00;100421.16;8328437;28;20384;-59